createdAt,value
2018-01-22T00:00:36.063Z,87.90
2018-01-22T00:03:03.578Z,87.60
2018-01-22T00:05:31.070Z,87.70
2018-01-22T00:07:58.636Z,87.50
2018-01-22T00:10:26.116Z,87.30
2018-01-22T00:12:53.650Z,87.10
2018-01-22T00:15:21.145Z,87.00
2018-01-22T00:17:49.560Z,86.70
2018-01-22T00:20:17.047Z,86.70
2018-01-22T00:22:44.722Z,86.50
2018-01-22T00:25:12.218Z,86.60
2018-01-22T00:27:39.744Z,86.40
2018-01-22T00:30:07.251Z,86.30
2018-01-22T00:32:34.911Z,86.40
2018-01-22T00:35:02.414Z,86.00
2018-01-22T00:37:29.937Z,86.00
2018-01-22T00:39:57.443Z,86.30
2018-01-22T00:42:24.950Z,86.30
2018-01-22T00:44:52.669Z,86.20
2018-01-22T00:47:20.166Z,86.00
2018-01-22T00:49:47.688Z,86.10
2018-01-22T00:52:15.177Z,86.00
2018-01-22T00:54:42.712Z,86.30
2018-01-22T00:57:10.976Z,86.30
2018-01-22T00:59:39.228Z,85.80
2018-01-22T01:02:06.793Z,86.30
2018-01-22T01:04:34.268Z,86.40
2018-01-22T01:07:01.865Z,86.30
2018-01-22T01:09:29.429Z,86.10
2018-01-22T01:11:57.060Z,86.50
2018-01-22T01:14:24.561Z,85.70
2018-01-22T01:16:52.118Z,85.70
2018-01-22T01:19:19.607Z,86.30
2018-01-22T01:21:47.110Z,86.40
2018-01-22T01:24:15.466Z,86.40
2018-01-22T01:26:43.717Z,85.90
2018-01-22T01:29:11.396Z,85.70
2018-01-22T01:31:39.652Z,86.70
2018-01-22T01:34:07.159Z,85.90
2018-01-22T01:36:34.642Z,85.80
2018-01-22T01:39:02.187Z,85.90
2018-01-22T01:41:29.675Z,85.90
2018-01-22T01:43:57.301Z,86.00
2018-01-22T01:46:24.933Z,85.90
2018-01-22T01:49:04.296Z,85.90
2018-01-22T01:51:31.772Z,86.20
2018-01-22T01:53:59.528Z,86.50
2018-01-22T01:56:27.116Z,86.70
2018-01-22T01:58:54.720Z,86.00
2018-01-22T02:01:22.382Z,85.50
2018-01-22T02:03:50.062Z,85.50
2018-01-22T02:06:17.579Z,86.20
2018-01-22T02:08:45.070Z,85.60
2018-01-22T02:11:12.627Z,85.10
2018-01-22T02:13:40.121Z,85.10
2018-01-22T02:16:07.622Z,85.30
2018-01-22T02:18:35.882Z,85.50
2018-01-22T02:21:03.393Z,85.40
2018-01-22T02:23:30.887Z,85.60
2018-01-22T02:25:58.386Z,85.70
2018-01-22T02:28:25.883Z,86.00
2018-01-22T02:30:53.400Z,86.40
2018-01-22T02:33:20.906Z,86.30
2018-01-22T02:35:48.506Z,87.10
2018-01-22T02:38:16.793Z,87.40
2018-01-22T02:40:44.361Z,87.30
2018-01-22T02:43:11.861Z,88.00
2018-01-22T02:45:39.755Z,88.00
2018-01-22T02:48:07.283Z,88.00
2018-01-22T02:50:34.789Z,88.50
2018-01-22T02:53:02.301Z,88.60
2018-01-22T02:55:29.911Z,88.40
2018-01-22T02:57:58.189Z,88.60
2018-01-22T03:00:25.692Z,88.60
2018-01-22T03:02:53.181Z,88.90
2018-01-22T03:05:20.693Z,89.10
2018-01-22T03:07:48.315Z,89.40
2018-01-22T03:10:15.829Z,89.80
2018-01-22T03:12:43.353Z,89.80
2018-01-22T03:15:10.871Z,90.00
2018-01-22T03:17:38.471Z,90.20
2018-01-22T03:20:06.003Z,90.00
2018-01-22T03:22:33.520Z,90.10
2018-01-22T03:25:01.093Z,89.90
2018-01-22T03:27:28.586Z,89.80
2018-01-22T03:29:56.873Z,90.30
2018-01-22T03:32:24.395Z,90.30
2018-01-22T03:34:52.155Z,90.40
2018-01-22T03:37:19.637Z,90.40
2018-01-22T03:39:47.928Z,90.60
2018-01-22T03:42:15.506Z,90.60
2018-01-22T03:44:43.165Z,90.50
2018-01-22T03:47:10.678Z,90.40
2018-01-22T03:49:38.255Z,90.60
2018-01-22T03:52:05.774Z,90.90
2018-01-22T03:54:33.279Z,90.40
2018-01-22T03:57:01.058Z,90.40
2018-01-22T03:59:28.532Z,90.50
2018-01-22T04:01:56.174Z,90.70
2018-01-22T04:04:23.658Z,90.70
2018-01-22T04:06:51.167Z,90.60
2018-01-22T04:09:18.659Z,90.80
2018-01-22T04:11:46.185Z,90.70
2018-01-22T04:14:13.704Z,90.70
2018-01-22T04:16:41.219Z,90.80
2018-01-22T04:19:08.717Z,90.80
2018-01-22T04:21:36.237Z,90.90
2018-01-22T04:24:03.794Z,90.70
2018-01-22T04:26:31.851Z,90.70
2018-01-22T04:28:59.370Z,90.70
2018-01-22T04:31:26.989Z,91.00
2018-01-22T04:33:54.625Z,91.00
2018-01-22T04:36:22.130Z,90.70
2018-01-22T04:38:49.642Z,90.70
2018-01-22T04:41:17.901Z,90.80
2018-01-22T04:43:45.573Z,90.80
2018-01-22T04:46:13.083Z,90.80
2018-01-22T04:48:40.619Z,90.70
2018-01-22T04:51:08.386Z,90.70
2018-01-22T04:53:35.981Z,90.80
2018-01-22T04:56:03.471Z,90.70
2018-01-22T04:58:30.978Z,90.70
2018-01-22T05:00:58.530Z,90.80
2018-01-22T05:03:26.272Z,91.00
2018-01-22T05:05:53.810Z,90.90
2018-01-22T05:08:21.474Z,90.90
2018-01-22T05:10:48.978Z,90.80
2018-01-22T05:13:16.479Z,90.80
2018-01-22T05:15:44.060Z,90.80
2018-01-22T05:18:11.559Z,90.90
2018-01-22T05:20:39.362Z,90.90
2018-01-22T05:23:07.644Z,90.90
2018-01-22T05:25:35.928Z,91.00
2018-01-22T05:28:03.455Z,91.00
2018-01-22T05:30:30.972Z,91.00
2018-01-22T05:32:58.538Z,90.80
2018-01-22T05:35:26.072Z,91.40
2018-01-22T05:37:53.592Z,91.20
2018-01-22T05:40:21.116Z,91.30
2018-01-22T05:42:48.915Z,91.20
2018-01-22T05:45:16.462Z,91.20
2018-01-22T05:47:43.954Z,91.20
2018-01-22T05:50:11.482Z,91.20
2018-01-22T05:52:38.995Z,91.10
2018-01-22T05:55:06.514Z,91.20
2018-01-22T05:57:34.052Z,91.30
2018-01-22T06:00:01.594Z,91.40
2018-01-22T06:02:29.133Z,91.40
2018-01-22T06:04:56.688Z,91.40
2018-01-22T06:07:24.210Z,91.10
2018-01-22T06:09:51.777Z,91.30
2018-01-22T06:12:19.338Z,91.30
2018-01-22T06:14:46.844Z,91.40
2018-01-22T06:17:14.364Z,91.50
2018-01-22T06:19:42.619Z,91.40
2018-01-22T06:22:10.901Z,91.50
2018-01-22T06:24:38.425Z,91.50
2018-01-22T06:27:06.869Z,91.30
2018-01-22T06:29:34.395Z,91.30
2018-01-22T06:32:01.933Z,91.30
2018-01-22T06:34:29.453Z,91.40
2018-01-22T06:36:56.970Z,91.40
2018-01-22T06:39:24.491Z,91.40
2018-01-22T06:41:51.988Z,91.40
2018-01-22T06:44:19.768Z,91.50
2018-01-22T06:46:48.175Z,91.40
2018-01-22T06:49:16.319Z,91.40
2018-01-22T06:51:43.890Z,91.40
2018-01-22T06:54:11.390Z,91.30
2018-01-22T06:56:38.897Z,91.30
2018-01-22T06:59:07.168Z,91.50
2018-01-22T07:01:34.686Z,91.60
2018-01-22T07:04:02.183Z,91.30
2018-01-22T07:06:29.714Z,91.40
2018-01-22T07:08:57.289Z,91.20
2018-01-22T07:11:24.834Z,91.40
2018-01-22T07:13:52.342Z,91.30
2018-01-22T07:16:20.109Z,91.30
2018-01-22T07:18:47.598Z,91.30
2018-01-22T07:21:15.101Z,91.20
2018-01-22T07:23:42.682Z,91.20
2018-01-22T07:26:10.213Z,91.30
2018-01-22T07:28:37.716Z,91.10
2018-01-22T07:31:05.326Z,90.90
2018-01-22T07:33:32.868Z,90.90
2018-01-22T07:36:00.716Z,90.90
2018-01-22T07:38:28.441Z,90.80
2018-01-22T07:40:55.982Z,90.80
2018-01-22T07:43:23.606Z,90.80
2018-01-22T07:45:52.480Z,90.80
2018-01-22T07:48:20.853Z,90.80
2018-01-22T07:50:48.396Z,90.80
2018-01-22T07:53:15.946Z,90.60
2018-01-22T07:55:43.452Z,90.50
2018-01-22T07:58:10.991Z,90.50
2018-01-22T08:00:38.480Z,90.30
2018-01-22T08:03:06.754Z,90.00
2018-01-22T08:05:34.254Z,90.00
2018-01-22T08:08:01.838Z,90.00
2018-01-22T08:10:29.351Z,90.00
2018-01-22T08:12:57.647Z,90.00
2018-01-22T08:15:25.397Z,89.90
2018-01-22T08:17:52.890Z,89.70
2018-01-22T08:20:20.440Z,89.60
2018-01-22T08:22:47.935Z,89.20
2018-01-22T08:25:15.445Z,88.40
2018-01-22T08:27:42.954Z,88.50
2018-01-22T08:30:10.479Z,89.00
2018-01-22T08:32:37.986Z,88.80
2018-01-22T08:35:05.705Z,88.70
2018-01-22T08:37:33.235Z,88.40
2018-01-22T08:40:01.644Z,88.00
2018-01-22T08:42:29.168Z,88.00
2018-01-22T08:44:56.716Z,87.90
2018-01-22T08:47:25.015Z,87.90
2018-01-22T08:49:52.508Z,87.80
2018-01-22T08:52:20.019Z,88.20
2018-01-22T08:54:47.708Z,88.00
2018-01-22T08:57:15.195Z,87.90
2018-01-22T08:59:43.196Z,88.00
2018-01-22T09:02:10.735Z,88.40
2018-01-22T09:04:38.286Z,88.50
2018-01-22T09:07:06.670Z,87.90
2018-01-22T09:09:34.202Z,87.80
2018-01-22T09:12:01.730Z,87.10
2018-01-22T09:14:30.046Z,88.20
2018-01-22T09:16:58.341Z,87.80
2018-01-22T09:19:25.883Z,87.80
2018-01-22T09:21:53.582Z,88.40
2018-01-22T09:24:21.082Z,87.70
2018-01-22T09:26:48.650Z,87.60
2018-01-22T09:29:16.170Z,88.00
2018-01-22T09:31:43.796Z,87.60
2018-01-22T09:34:11.299Z,87.80
2018-01-22T09:36:38.961Z,87.20
2018-01-22T09:39:06.462Z,87.40
2018-01-22T09:41:34.032Z,87.20
2018-01-22T09:44:01.939Z,86.20
2018-01-22T09:46:29.445Z,86.70
2018-01-22T09:48:56.949Z,86.60
2018-01-22T09:51:24.585Z,86.10
2018-01-22T09:53:52.264Z,86.10
2018-01-22T09:56:19.790Z,86.10
2018-01-22T09:58:48.058Z,86.20
2018-01-22T10:01:16.385Z,86.70
2018-01-22T10:03:43.879Z,86.70
2018-01-22T10:06:11.663Z,86.70
2018-01-22T10:08:39.537Z,86.40
2018-01-22T10:11:07.069Z,86.90
2018-01-22T10:13:34.614Z,87.20
2018-01-22T10:16:02.147Z,86.60
2018-01-22T10:18:29.692Z,87.40
2018-01-22T10:20:57.358Z,87.60
2018-01-22T10:23:24.961Z,90.60
2018-01-22T10:25:52.458Z,85.90
2018-01-22T10:28:20.102Z,86.30
2018-01-22T10:30:47.611Z,86.00
2018-01-22T10:33:15.144Z,86.20
2018-01-22T10:35:42.634Z,87.10
2018-01-22T10:38:10.172Z,87.30
2018-01-22T10:40:37.678Z,87.10
2018-01-22T10:43:05.501Z,87.60
2018-01-22T10:45:33.115Z,87.20
2018-01-22T10:48:01.408Z,89.20
2018-01-22T10:50:29.004Z,88.80
2018-01-22T10:52:56.497Z,88.80
2018-01-22T10:55:24.100Z,89.00
2018-01-22T10:57:51.597Z,88.70
2018-01-22T11:00:19.089Z,89.30
2018-01-22T11:02:47.586Z,89.20
2018-01-22T11:05:15.106Z,89.20
2018-01-22T11:07:43.381Z,88.00
2018-01-22T11:10:11.665Z,87.60
2018-01-22T11:12:39.926Z,86.30
2018-01-22T11:15:07.460Z,86.20
2018-01-22T11:17:34.953Z,85.90
2018-01-22T11:20:02.530Z,87.10
2018-01-22T11:22:30.046Z,86.90
2018-01-22T11:24:57.528Z,87.00
2018-01-22T11:27:25.841Z,86.90
2018-01-22T11:29:53.335Z,86.80
2018-01-22T11:32:21.107Z,87.30
2018-01-22T11:34:48.616Z,86.30
2018-01-22T11:37:16.195Z,86.10
2018-01-22T11:39:43.683Z,86.50
2018-01-22T11:42:11.191Z,87.10
2018-01-22T11:44:38.667Z,87.80
2018-01-22T11:47:06.171Z,87.30
2018-01-22T11:49:33.669Z,87.00
2018-01-22T11:52:01.403Z,87.70
2018-01-22T11:54:28.911Z,87.70
2018-01-22T11:56:56.418Z,87.90
2018-01-22T11:59:24.000Z,87.80
2018-01-22T12:01:51.484Z,88.40
2018-01-22T12:04:19.935Z,88.80
2018-01-22T12:06:47.425Z,88.80
2018-01-22T12:09:14.924Z,88.70
2018-01-22T12:11:42.448Z,88.70
2018-01-22T12:14:13.643Z,88.70
2018-01-22T12:16:44.538Z,88.90
2018-01-22T12:19:12.064Z,88.40
2018-01-22T12:21:39.592Z,88.50
2018-01-22T12:24:07.266Z,88.70
2018-01-22T12:26:35.218Z,88.70
2018-01-22T12:29:02.758Z,88.70
2018-01-22T12:31:30.278Z,89.60
2018-01-22T12:33:58.009Z,90.10
2018-01-22T12:36:25.861Z,90.10
2018-01-22T12:38:53.357Z,90.00
2018-01-22T12:41:20.988Z,90.00
2018-01-22T12:43:49.245Z,90.60
2018-01-22T12:46:16.774Z,90.20
2018-01-22T12:48:44.293Z,90.20
2018-01-22T12:51:11.757Z,90.30
2018-01-22T12:53:39.772Z,90.20
2018-01-22T12:56:08.057Z,90.70
2018-01-22T12:58:35.547Z,90.70
2018-01-22T13:01:03.115Z,90.50
2018-01-22T13:03:30.601Z,90.40
2018-01-22T13:05:58.146Z,90.40
2018-01-22T13:08:25.729Z,90.40
2018-01-22T13:10:53.243Z,90.50
2018-01-22T13:13:21.563Z,90.60
2018-01-22T13:15:49.048Z,90.60
2018-01-22T13:18:16.544Z,90.60
2018-01-22T13:20:44.062Z,90.50
2018-01-22T13:23:11.580Z,90.60
2018-01-22T13:25:39.086Z,90.50
2018-01-22T13:28:06.641Z,90.50
2018-01-22T13:30:34.125Z,90.50
2018-01-22T13:33:03.493Z,90.40
2018-01-22T13:35:31.046Z,90.40
2018-01-22T13:37:58.569Z,90.50
2018-01-22T13:40:31.825Z,90.70
2018-01-22T13:42:59.316Z,90.80
2018-01-22T13:45:26.828Z,90.90
2018-01-22T13:47:54.441Z,91.00
2018-01-22T13:50:21.966Z,91.10
2018-01-22T13:52:49.656Z,91.00
2018-01-22T13:55:17.291Z,91.00
2018-01-22T13:57:45.675Z,91.20
2018-01-22T14:00:13.213Z,91.20
2018-01-22T14:02:40.948Z,91.20
2018-01-22T14:05:08.494Z,91.40
2018-01-22T14:07:36.000Z,91.40
2018-01-22T14:10:03.541Z,91.70
2018-01-22T14:12:31.033Z,91.80
2018-01-22T14:14:58.555Z,92.20
2018-01-22T14:17:26.055Z,92.20
2018-01-22T14:19:53.574Z,92.40
2018-01-22T14:22:21.079Z,92.30
2018-01-22T14:24:48.559Z,92.60
2018-01-22T14:27:16.060Z,93.10
2018-01-22T14:29:44.338Z,92.60
2018-01-22T14:32:11.855Z,92.60
2018-01-22T14:34:39.384Z,92.60
2018-01-22T14:37:06.882Z,92.30
2018-01-22T14:39:34.370Z,92.40
2018-01-22T14:42:01.907Z,92.30
2018-01-22T14:44:29.416Z,92.20
2018-01-22T14:46:56.993Z,92.30
2018-01-22T14:49:24.477Z,92.50
2018-01-22T14:51:51.980Z,92.40
2018-01-22T14:54:19.634Z,92.30
2018-01-22T14:56:47.917Z,91.90
2018-01-22T14:59:15.399Z,91.90
2018-01-22T15:01:42.951Z,91.90
2018-01-22T15:04:10.488Z,92.10
2018-01-22T15:06:38.083Z,92.10
2018-01-22T15:09:05.730Z,92.10
2018-01-22T15:11:33.218Z,92.20
2018-01-22T15:14:00.956Z,92.30
2018-01-22T15:16:28.442Z,92.50
2018-01-22T15:18:56.221Z,92.30
2018-01-22T15:21:23.754Z,92.20
2018-01-22T15:23:52.097Z,92.50
2018-01-22T15:26:19.849Z,92.50
2018-01-22T15:28:47.425Z,92.40
2018-01-22T15:31:15.053Z,92.50
2018-01-22T15:33:42.576Z,92.40
2018-01-22T15:36:10.077Z,92.60
2018-01-22T15:38:37.686Z,92.60
2018-01-22T15:41:05.248Z,92.60
2018-01-22T15:43:33.162Z,92.60
2018-01-22T15:46:00.672Z,92.70
2018-01-22T15:48:28.231Z,92.80
2018-01-22T15:50:55.907Z,92.60
2018-01-22T15:53:23.634Z,92.70
2018-01-22T15:55:51.396Z,92.80
2018-01-22T15:58:18.915Z,93.00
2018-01-22T16:00:46.528Z,93.00
2018-01-22T16:03:14.186Z,93.60
2018-01-22T16:05:41.901Z,93.50
2018-01-22T16:08:09.422Z,93.10
2018-01-22T16:10:37.516Z,93.10
2018-01-22T16:13:05.156Z,93.20
2018-01-22T16:15:32.679Z,93.20
2018-01-22T16:18:00.920Z,93.30
2018-01-22T16:20:28.418Z,93.30
2018-01-22T16:22:55.972Z,93.30
2018-01-22T16:25:23.457Z,93.30
2018-01-22T16:27:50.952Z,93.50
2018-01-22T16:30:19.246Z,93.60
2018-01-22T16:32:46.754Z,93.60
2018-01-22T16:35:14.258Z,93.70
2018-01-22T16:37:41.794Z,93.80
2018-01-22T16:40:09.392Z,94.00
2018-01-22T16:42:38.213Z,94.20
2018-01-22T16:45:05.741Z,94.30
2018-01-22T16:47:39.643Z,94.40
2018-01-22T16:50:07.183Z,94.30
2018-01-22T16:52:34.673Z,94.30
2018-01-22T16:55:02.408Z,94.30
2018-01-22T16:57:29.909Z,94.20
2018-01-22T16:59:57.446Z,94.00
2018-01-22T17:02:24.999Z,94.10
2018-01-22T17:04:52.523Z,94.20
2018-01-22T17:07:20.066Z,94.20
2018-01-22T17:09:47.569Z,94.10
2018-01-22T17:12:15.855Z,94.20
2018-01-22T17:14:44.133Z,94.20
2018-01-22T17:17:11.613Z,94.20
2018-01-22T17:19:39.131Z,94.20
2018-01-22T17:22:07.341Z,94.20
2018-01-22T17:24:35.465Z,94.40
2018-01-22T17:27:03.692Z,94.50
2018-01-22T17:29:33.351Z,94.60
2018-01-22T17:32:00.824Z,94.50
2018-01-22T17:34:29.152Z,94.40
2018-01-22T17:36:56.725Z,94.40
2018-01-22T17:39:24.250Z,94.50
2018-01-22T17:41:51.773Z,94.40
2018-01-22T17:44:20.047Z,94.70
2018-01-22T17:46:48.331Z,94.50
2018-01-22T17:49:17.219Z,94.50
2018-01-22T17:51:45.517Z,94.50
2018-01-22T17:54:13.006Z,94.50
2018-01-22T17:56:41.658Z,94.50
2018-01-22T17:59:09.133Z,94.50
2018-01-22T18:01:36.713Z,94.40
2018-01-22T18:04:04.255Z,94.50
2018-01-22T18:06:31.811Z,94.40
2018-01-22T18:08:59.485Z,94.50
2018-01-22T18:11:26.962Z,94.30
2018-01-22T18:13:54.479Z,94.20
2018-01-22T18:16:21.974Z,94.20
2018-01-22T18:18:49.477Z,94.10
2018-01-22T18:21:17.057Z,94.10
2018-01-22T18:23:44.578Z,94.20
2018-01-22T18:26:12.085Z,94.30
2018-01-22T18:28:39.676Z,94.40
2018-01-22T18:31:07.586Z,94.50
2018-01-22T18:33:35.136Z,94.40
2018-01-22T18:36:02.666Z,94.40
2018-01-22T18:38:30.810Z,94.50
2018-01-22T18:40:59.149Z,94.60
2018-01-22T18:43:26.640Z,94.60
2018-01-22T18:45:54.182Z,94.70
2018-01-22T18:48:21.697Z,94.60
2018-01-22T18:50:49.222Z,94.60
2018-01-22T18:53:16.748Z,94.60
2018-01-22T18:55:44.274Z,94.70
2018-01-22T18:58:11.764Z,94.70
2018-01-22T19:00:39.292Z,94.80
2018-01-22T19:03:06.804Z,94.80
2018-01-22T19:05:34.327Z,94.80
2018-01-22T19:08:01.838Z,94.70
2018-01-22T19:10:29.353Z,94.80
2018-01-22T19:12:56.914Z,94.80
2018-01-22T19:15:24.422Z,94.90
2018-01-22T19:17:51.950Z,95.10
2018-01-22T19:20:19.466Z,95.10
2018-01-22T19:22:47.867Z,95.00
2018-01-22T19:25:15.365Z,95.00
2018-01-22T19:27:42.879Z,95.00
2018-01-22T19:30:10.406Z,95.10
2018-01-22T19:32:37.963Z,95.00
2018-01-22T19:35:05.475Z,94.60
2018-01-22T19:37:32.993Z,94.60
2018-01-22T19:40:00.693Z,94.60
2018-01-22T19:42:28.205Z,94.70
2018-01-22T19:44:56.662Z,94.60
2018-01-22T19:47:24.166Z,94.50
2018-01-22T19:49:51.697Z,94.50
2018-01-22T19:52:20.012Z,94.60
2018-01-22T19:54:48.226Z,94.60
2018-01-22T19:57:15.725Z,94.60
2018-01-22T19:59:44.037Z,94.40
2018-01-22T20:02:11.546Z,94.40
2018-01-22T20:04:39.101Z,93.40
2018-01-22T20:07:06.612Z,92.70
2018-01-22T20:09:34.120Z,92.70
2018-01-22T20:12:01.643Z,92.90
2018-01-22T20:14:29.166Z,92.90
2018-01-22T20:16:56.696Z,92.90
2018-01-22T20:19:24.210Z,92.70
2018-01-22T20:21:51.756Z,92.70
2018-01-22T20:24:19.258Z,92.60
2018-01-22T20:26:48.101Z,92.60
2018-01-22T20:29:15.605Z,92.60
2018-01-22T20:31:43.132Z,92.80
2018-01-22T20:34:10.623Z,92.80
2018-01-22T20:36:38.536Z,92.70
2018-01-22T20:39:06.060Z,92.70
2018-01-22T20:41:33.592Z,92.80
2018-01-22T20:44:01.103Z,92.80
2018-01-22T20:46:28.592Z,93.20
2018-01-22T20:48:56.119Z,93.00
2018-01-22T20:51:23.632Z,93.20
2018-01-22T20:53:51.145Z,93.20
2018-01-22T20:56:18.651Z,93.40
2018-01-22T20:58:46.164Z,93.50
2018-01-22T21:01:13.662Z,93.80
2018-01-22T21:03:41.392Z,93.80
2018-01-22T21:06:09.254Z,93.80
2018-01-22T21:08:36.813Z,94.00
2018-01-22T21:11:04.328Z,94.00
2018-01-22T21:13:32.242Z,94.10
2018-01-22T21:15:59.992Z,94.40
2018-01-22T21:18:27.496Z,94.60
2018-01-22T21:20:54.999Z,94.60
2018-01-22T21:23:22.485Z,94.50
2018-01-22T21:25:50.137Z,94.50
2018-01-22T21:28:18.140Z,94.40
2018-01-22T21:30:45.676Z,94.40
2018-01-22T21:33:13.170Z,94.50
2018-01-22T21:35:40.894Z,94.60
2018-01-22T21:38:09.358Z,94.90
2018-01-22T21:40:36.931Z,94.90
2018-01-22T21:43:04.488Z,94.90
2018-01-22T21:45:32.023Z,94.90
2018-01-22T21:48:00.285Z,95.00
2018-01-22T21:50:27.783Z,95.00
2018-01-22T21:52:55.340Z,95.00
2018-01-22T21:55:22.849Z,94.90
2018-01-22T21:57:50.373Z,94.80
2018-01-22T22:00:17.874Z,94.80
2018-01-22T22:02:45.429Z,94.70
2018-01-22T22:05:13.101Z,94.50
2018-01-22T22:07:41.395Z,94.50
2018-01-22T22:10:08.905Z,94.40
2018-01-22T22:12:36.444Z,94.30
2018-01-22T22:15:03.947Z,94.30
2018-01-22T22:17:32.229Z,94.00
2018-01-22T22:20:00.532Z,93.90
2018-01-22T22:22:28.094Z,94.00
2018-01-22T22:24:55.605Z,93.80
2018-01-22T22:27:23.881Z,94.00
2018-01-22T22:29:51.493Z,94.00
2018-01-22T22:32:18.989Z,94.00
2018-01-22T22:34:46.518Z,94.00
2018-01-22T22:37:14.004Z,93.90
2018-01-22T22:39:41.661Z,94.10
2018-01-22T22:42:09.295Z,94.00
2018-01-22T22:44:36.857Z,94.00
2018-01-22T22:47:04.509Z,94.00
2018-01-22T22:49:32.001Z,94.00
2018-01-22T22:51:59.526Z,94.00
2018-01-22T22:54:27.029Z,94.00
2018-01-22T22:56:54.547Z,94.00
2018-01-22T22:59:22.025Z,94.10
2018-01-22T23:01:49.525Z,94.10
2018-01-22T23:04:17.801Z,94.30
2018-01-22T23:06:46.162Z,94.30
2018-01-22T23:09:13.813Z,94.30
2018-01-22T23:11:41.324Z,94.20
2018-01-22T23:14:08.831Z,94.20
2018-01-22T23:16:36.446Z,94.10
2018-01-22T23:19:04.308Z,94.10
2018-01-22T23:21:31.859Z,93.90
2018-01-22T23:23:59.361Z,93.90
2018-01-22T23:26:27.092Z,93.80
2018-01-22T23:28:54.571Z,93.70
2018-01-22T23:31:22.087Z,93.60
2018-01-22T23:33:49.768Z,93.60
2018-01-22T23:36:17.308Z,93.50
2018-01-22T23:38:44.842Z,93.50
2018-01-22T23:41:12.428Z,93.40
2018-01-22T23:43:39.933Z,93.50
2018-01-22T23:46:07.431Z,93.40
2018-01-22T23:48:36.045Z,93.30
2018-01-22T23:51:03.534Z,93.30
2018-01-22T23:53:31.046Z,93.30
2018-01-22T23:55:58.537Z,93.20
2018-01-22T23:58:26.038Z,93.30
